Time;durP1;ratioP1;P1;durP2;ratioP2;P2;SDS_P1;SDS_P2;PMS_P1;PMS_P2;Temp;Humidity;BMP_temperature;BMP_pressure;BME280_temperature;BME280_humidity;BME280_pressure;Samples;Min_cycle;Max_cycle;Signal;HPM_P1;HPM_P2
2024/02/13 00:00:10;;;;;;;9.37;5.53;;;5.20;99.90;5.10;100017.00;;;;4927467;28;90257;-72
2024/02/13 00:02:39;;;;;;;6.10;4.63;;;5.40;99.90;5.10;100021.00;;;;4928416;28;87953;-72
2024/02/13 00:05:07;;;;;;;7.50;5.27;;;5.20;99.90;5.00;100030.00;;;;4929305;28;87882;-72
2024/02/13 00:07:34;;;;;;;9.57;5.60;;;5.70;99.90;5.00;100032.00;;;;4936053;28;87053;-72
2024/02/13 00:10:00;;;;;;;10.17;6.10;;;5.40;99.90;5.00;100042.00;;;;4932690;28;87972;-72
2024/02/13 00:12:26;;;;;;;10.63;6.10;;;5.20;99.90;4.90;100044.00;;;;4932913;28;109798;-72
2024/02/13 00:14:51;;;;;;;9.87;6.23;;;5.20;99.90;4.90;100049.00;;;;4929672;28;90677;-72
2024/02/13 00:17:17;;;;;;;10.03;5.97;;;6.00;99.90;4.90;100047.00;;;;4927581;28;116651;-72
2024/02/13 00:19:43;;;;;;;10.00;6.67;;;5.10;99.90;4.90;100055.00;;;;4926627;28;88051;-73
2024/02/13 00:22:12;;;;;;;8.87;7.00;;;6.00;99.90;4.90;100051.00;;;;4931422;28;109800;-73
2024/02/13 00:24:39;;;;;;;12.07;6.70;;;5.10;99.90;4.90;100052.00;;;;4926671;28;87919;-72
2024/02/13 00:27:05;;;;;;;15.63;7.13;;;5.10;99.90;4.80;100057.00;;;;4931360;28;88061;-72
2024/02/13 00:29:30;;;;;;;11.70;7.47;;;5.10;99.90;4.80;100066.00;;;;4925807;28;89545;-72
2024/02/13 00:31:56;;;;;;;9.60;6.63;;;5.00;99.90;4.80;100081.00;;;;4928693;28;109490;-72
2024/02/13 00:34:22;;;;;;;9.17;6.43;;;5.00;99.90;4.80;100066.00;;;;4926471;28;108127;-72
2024/02/13 00:36:51;;;;;;;11.27;8.37;;;5.00;99.90;4.80;100064.00;;;;4928488;28;88699;-72
2024/02/13 00:39:18;;;;;;;9.13;6.60;;;5.80;99.90;4.80;100075.00;;;;4926471;28;118297;-72
2024/02/13 00:41:43;;;;;;;12.20;7.00;;;5.20;99.90;4.80;100077.00;;;;4927717;28;87697;-72
2024/02/13 00:44:11;;;;;;;11.60;7.73;;;5.40;99.90;4.80;100083.00;;;;4928093;28;87671;-72
2024/02/13 00:46:37;;;;;;;9.60;6.13;;;5.00;99.90;4.80;100083.00;;;;4927697;28;88863;-72
2024/02/13 00:49:03;;;;;;;10.43;7.67;;;5.90;99.90;4.80;100079.00;;;;4930622;28;88261;-73
2024/02/13 00:51:29;;;;;;;10.27;5.80;;;5.70;99.90;4.70;100084.00;;;;4930205;28;88188;-72
2024/02/13 00:53:56;;;;;;;11.07;7.20;;;5.70;99.90;4.70;100083.00;;;;4926727;28;95881;-72
2024/02/13 00:56:22;;;;;;;12.03;7.20;;;5.70;99.90;4.70;100094.00;;;;4931273;28;87561;-72
2024/02/13 00:58:47;;;;;;;7.57;5.97;;;4.90;99.90;4.70;100083.00;;;;4926489;28;109143;-72
2024/02/13 01:01:14;;;;;;;14.70;7.60;;;4.80;99.90;4.60;100103.00;;;;4929544;28;110531;-72
2024/02/13 01:03:40;;;;;;;14.63;8.00;;;5.40;99.90;4.60;100094.00;;;;4922077;28;101966;-72
2024/02/13 01:06:07;;;;;;;11.33;6.27;;;4.90;99.90;4.60;100102.00;;;;4929187;28;89389;-73
2024/02/13 01:08:37;;;;;;;11.47;7.80;;;5.60;99.90;4.60;100103.00;;;;4908700;28;89093;-73
2024/02/13 01:11:03;;;;;;;7.83;6.27;;;4.80;99.90;4.50;100108.00;;;;4929139;28;87546;-73
2024/02/13 01:13:29;;;;;;;16.00;7.53;;;4.80;99.90;4.50;100105.00;;;;4930849;28;93308;-72
2024/02/13 01:15:55;;;;;;;10.33;6.07;;;4.70;99.90;4.50;100109.00;;;;4925402;28;88257;-72
2024/02/13 01:18:22;;;;;;;7.17;5.77;;;4.70;99.90;4.40;100114.00;;;;4932072;28;116896;-72
2024/02/13 01:20:48;;;;;;;11.63;8.07;;;4.70;99.90;4.40;100108.00;;;;4926801;28;87325;-72
2024/02/13 01:23:14;;;;;;;11.50;7.30;;;4.50;99.90;4.40;100108.00;;;;4928651;28;87991;-72
2024/02/13 01:25:39;;;;;;;9.20;6.37;;;4.60;99.90;4.30;100118.00;;;;4940574;28;109631;-72
2024/02/13 01:28:07;;;;;;;12.90;7.70;;;4.60;99.90;4.30;100129.00;;;;4925164;28;89177;-72
2024/02/13 01:30:34;;;;;;;15.67;7.00;;;5.20;99.90;4.30;100118.00;;;;4924779;28;88067;-72
2024/02/13 01:33:00;;;;;;;9.53;6.60;;;4.60;99.90;4.30;100131.00;;;;4948931;28;89529;-72
2024/02/13 01:35:27;;;;;;;9.60;7.57;;;4.50;99.90;4.30;100123.00;;;;4924358;28;100105;-72
2024/02/13 01:37:53;;;;;;;8.47;6.63;;;4.40;99.90;4.30;100126.00;;;;4926499;28;88829;-73
2024/02/13 01:40:18;;;;;;;10.53;6.83;;;4.50;99.90;4.30;100130.00;;;;4925252;28;88076;-72
2024/02/13 01:42:49;;;;;;;9.07;6.17;;;5.20;99.90;4.20;100131.00;;;;4928966;28;109533;-72
2024/02/13 01:45:16;;;;;;;9.07;6.77;;;4.50;99.90;4.20;100131.00;;;;4928962;28;88134;-72
2024/02/13 01:47:43;;;;;;;13.10;6.37;;;4.40;99.90;4.20;100140.00;;;;4927866;28;88928;-72
2024/02/13 01:50:11;;;;;;;10.93;6.83;;;5.00;99.90;4.20;100137.00;;;;4928026;28;87844;-72
2024/02/13 01:52:37;;;;;;;9.27;6.30;;;4.40;99.90;4.10;100144.00;;;;4927116;28;88693;-72
2024/02/13 01:55:04;;;;;;;7.40;6.07;;;4.40;99.90;4.10;100143.00;;;;4930639;28;117902;-71
2024/02/13 01:57:35;;;;;;;13.37;7.40;;;4.30;99.90;4.00;100152.00;;;;4927356;28;109897;-72
2024/02/13 02:00:09;;;;;;;13.80;6.33;;;4.30;99.90;4.00;100145.00;;;;4931717;28;89340;-72
2024/02/13 02:02:35;;;;;;;9.07;6.03;;;4.30;99.90;4.00;100150.00;;;;4932565;28;87807;-72
2024/02/13 02:05:01;;;;;;;12.97;6.70;;;4.20;99.90;4.00;100147.00;;;;4933172;28;88464;-72
2024/02/13 02:07:28;;;;;;;12.80;6.73;;;4.10;99.90;4.00;100145.00;;;;4931483;28;110050;-72
2024/02/13 02:09:58;;;;;;;9.03;7.30;;;4.20;99.90;4.00;100156.00;;;;4930570;28;109943;-72
2024/02/13 02:12:23;;;;;;;11.63;6.63;;;4.20;99.90;4.00;100150.00;;;;4929356;28;88063;-71
2024/02/13 02:14:49;;;;;;;6.23;5.27;;;5.00;99.90;4.00;100156.00;;;;4930204;28;115936;-71
2024/02/13 02:17:15;;;;;;;9.17;5.77;;;4.20;99.90;4.00;100159.00;;;;4935423;28;89054;-71
2024/02/13 02:19:41;;;;;;;8.83;5.83;;;3.80;99.90;4.00;100162.00;;;;4935358;28;96703;-73
2024/02/13 02:22:07;;;;;;;13.57;8.40;;;4.50;99.90;4.00;100156.00;;;;4932700;28;107214;-73
2024/02/13 02:24:36;;;;;;;9.23;6.13;;;5.10;99.90;4.00;100169.00;;;;4937743;28;90015;-71
2024/02/13 02:27:02;;;;;;;11.77;7.07;;;5.10;99.90;4.00;100170.00;;;;4932858;28;118661;-72
2024/02/13 02:29:29;;;;;;;7.60;5.63;;;4.30;99.90;4.00;100168.00;;;;4936463;28;87950;-73
2024/02/13 02:31:55;;;;;;;12.57;7.00;;;4.30;99.90;4.10;100166.00;;;;4929124;28;88343;-71
2024/02/13 02:34:21;;;;;;;8.57;6.43;;;4.30;99.90;4.10;100180.00;;;;4933543;28;87421;-71
2024/02/13 02:36:50;;;;;;;11.07;6.13;;;4.90;99.90;4.10;100174.00;;;;4936786;28;116541;-71
2024/02/13 02:39:19;;;;;;;10.30;6.90;;;4.30;99.90;4.20;100174.00;;;;4932045;28;88074;-71
2024/02/13 02:41:46;;;;;;;7.27;5.80;;;5.10;99.90;4.30;100184.00;;;;4934348;28;94952;-71
2024/02/13 02:44:13;;;;;;;11.40;7.33;;;4.40;99.90;4.30;100182.00;;;;4934878;28;89256;-71
2024/02/13 02:46:39;;;;;;;9.87;6.43;;;4.40;99.90;4.40;100182.00;;;;4933035;28;117958;-71
2024/02/13 02:49:05;;;;;;;11.83;5.93;;;4.60;99.90;4.50;100186.00;;;;4931216;28;108148;-71
2024/02/13 02:51:32;;;;;;;8.40;6.07;;;4.60;99.90;4.50;100187.00;;;;4934611;28;88127;-72
2024/02/13 02:53:57;;;;;;;9.40;6.37;;;4.70;99.90;4.60;100192.00;;;;4931144;28;88144;-71
2024/02/13 02:56:23;;;;;;;11.87;7.10;;;4.70;99.90;4.60;100210.00;;;;4935013;28;88309;-71
2024/02/13 02:58:53;;;;;;;11.10;6.77;;;4.80;99.90;4.70;100215.00;;;;4932839;28;104174;-71
2024/02/13 03:01:19;;;;;;;11.33;7.00;;;4.80;99.90;4.70;100223.00;;;;4931850;28;87775;-71
2024/02/13 03:03:45;;;;;;;7.00;5.20;;;4.90;99.90;4.70;100214.00;;;;4936487;28;89520;-72
2024/02/13 03:06:10;;;;;;;11.67;7.17;;;4.90;99.90;4.80;100224.00;;;;4931647;28;107487;-71
2024/02/13 03:08:36;;;;;;;7.40;5.20;;;4.90;99.90;4.80;100236.00;;;;4936487;28;113057;-72
2024/02/13 03:11:02;;;;;;;8.93;7.27;;;5.00;99.90;4.90;100232.00;;;;4938119;28;108580;-71
2024/02/13 03:13:27;;;;;;;7.67;6.40;;;5.00;99.90;4.90;100241.00;;;;4933801;28;118555;-71
2024/02/13 03:15:53;;;;;;;8.60;6.10;;;5.00;99.90;5.00;100247.00;;;;4933966;28;103976;-72
2024/02/13 03:18:19;;;;;;;9.77;6.90;;;5.10;99.90;5.00;100247.00;;;;4934163;28;87954;-72
2024/02/13 03:20:45;;;;;;;6.63;4.57;;;5.10;99.90;5.00;100247.00;;;;4934495;28;87822;-72
2024/02/13 03:23:11;;;;;;;10.77;6.33;;;5.10;99.90;5.10;100260.00;;;;4929697;28;116141;-72
2024/02/13 03:25:36;;;;;;;8.37;5.17;;;5.30;99.90;5.10;100254.00;;;;4931219;28;117029;-73
2024/02/13 03:28:04;;;;;;;9.60;6.33;;;5.20;99.90;5.10;100273.00;;;;4930927;28;110879;-73
2024/02/13 03:30:29;;;;;;;10.17;5.97;;;5.30;99.90;5.10;100271.00;;;;4929991;28;88915;-72
2024/02/13 03:32:55;;;;;;;7.67;5.50;;;5.90;99.90;5.20;100275.00;;;;4932025;28;90793;-73
2024/02/13 03:35:21;;;;;;;11.00;5.63;;;5.50;99.90;5.20;100271.00;;;;4931227;28;117454;-73
2024/02/13 03:37:46;;;;;;;8.57;5.70;;;5.40;99.90;5.20;100282.00;;;;4927002;28;110698;-73
2024/02/13 03:40:15;;;;;;;9.83;7.37;;;5.90;99.90;5.20;100288.00;;;;4916637;28;107392;-73
2024/02/13 03:42:45;;;;;;;10.27;6.13;;;5.40;99.90;5.20;100282.00;;;;4930514;28;88567;-73
2024/02/13 03:45:10;;;;;;;8.57;5.97;;;5.40;99.90;5.20;100292.00;;;;4933020;28;87900;-73
2024/02/13 03:47:37;;;;;;;8.30;5.50;;;5.40;99.90;5.20;100297.00;;;;4935484;28;110363;-73
2024/02/13 03:50:03;;;;;;;10.10;6.10;;;5.30;99.90;5.20;100308.00;;;;4931343;28;87983;-73
2024/02/13 03:52:31;;;;;;;15.17;6.57;;;5.30;99.90;5.20;100303.00;;;;4931658;28;87946;-73
2024/02/13 03:54:57;;;;;;;14.50;6.60;;;6.10;99.90;5.20;100304.00;;;;4928641;28;88966;-73
2024/02/13 03:57:24;;;;;;;11.97;6.00;;;6.20;99.90;5.20;100312.00;;;;4932762;28;87730;-73
2024/02/13 03:59:49;;;;;;;8.23;6.73;;;6.20;99.90;5.20;100311.00;;;;4931643;28;87747;-73
2024/02/13 04:02:15;;;;;;;12.63;6.40;;;5.40;99.90;5.20;100311.00;;;;4925014;28;109887;-73
2024/02/13 04:04:42;;;;;;;15.67;7.50;;;5.40;99.90;5.20;100326.00;;;;4930435;28;89437;-73
2024/02/13 04:07:08;;;;;;;10.93;6.67;;;5.50;99.90;5.30;100326.00;;;;4930754;28;88274;-73
2024/02/13 04:09:36;;;;;;;10.57;5.37;;;6.10;99.90;5.30;100334.00;;;;4930236;28;88030;-73
2024/02/13 04:12:05;;;;;;;10.87;7.63;;;5.40;99.90;5.30;100331.00;;;;4930981;28;88149;-73
2024/02/13 04:14:30;;;;;;;8.17;6.50;;;5.40;99.90;5.30;100340.00;;;;4929204;28;87857;-73
2024/02/13 04:16:56;;;;;;;11.13;5.23;;;5.50;99.90;5.30;100339.00;;;;4929224;28;109253;-73
2024/02/13 04:19:22;;;;;;;12.53;7.27;;;6.30;99.90;5.30;100343.00;;;;4935780;28;90628;-72
2024/02/13 04:21:48;;;;;;;9.57;5.87;;;5.70;99.90;5.30;100348.00;;;;4933437;28;110935;-73
2024/02/13 04:24:14;;;;;;;9.63;6.73;;;5.50;99.90;5.30;100347.00;;;;4931512;28;116799;-72
2024/02/13 04:26:40;;;;;;;11.17;6.43;;;5.40;99.90;5.30;100354.00;;;;4931848;28;109701;-72
2024/02/13 04:29:07;;;;;;;10.77;5.93;;;6.40;99.90;5.30;100357.00;;;;4929691;28;88064;-72
2024/02/13 04:31:33;;;;;;;7.00;5.17;;;5.90;99.90;5.30;100355.00;;;;4926633;28;88961;-72
2024/02/13 04:33:59;;;;;;;8.67;4.60;;;6.10;99.90;5.30;100359.00;;;;4929145;28;88386;-72
2024/02/13 04:36:25;;;;;;;11.93;6.83;;;6.00;99.90;5.20;100365.00;;;;4928288;28;109904;-72
2024/02/13 04:38:51;;;;;;;11.23;5.73;;;5.40;99.90;5.20;100365.00;;;;4928966;28;89360;-72
2024/02/13 04:41:19;;;;;;;9.10;5.60;;;5.40;99.90;5.20;100385.00;;;;4926291;28;115158;-73
2024/02/13 04:43:45;;;;;;;10.97;6.10;;;6.00;99.90;5.20;100375.00;;;;4929910;28;88997;-72
2024/02/13 04:46:11;;;;;;;10.67;6.00;;;5.30;99.90;5.10;100382.00;;;;4933097;28;87946;-72
2024/02/13 04:48:37;;;;;;;10.37;6.60;;;5.70;99.90;5.10;100380.00;;;;4927300;28;107612;-72
2024/02/13 04:51:05;;;;;;;12.27;6.03;;;5.40;99.90;5.10;100382.00;;;;4935699;28;87940;-72
2024/02/13 04:53:31;;;;;;;9.57;6.00;;;5.40;99.90;5.00;100378.00;;;;4932986;28;89098;-72
2024/02/13 04:55:57;;;;;;;8.37;5.37;;;5.30;99.90;5.00;100384.00;;;;4930941;28;87778;-72
2024/02/13 04:58:23;;;;;;;9.27;5.40;;;5.20;99.90;5.00;100396.00;;;;4937007;28;101802;-73
2024/02/13 05:01:01;;;;;;;8.47;6.13;;;5.40;99.90;5.00;100402.00;;;;4930823;28;116401;-72
2024/02/13 05:03:39;;;;;;;6.97;5.30;;;5.10;99.90;5.00;100393.00;;;;4925082;28;88314;-72
2024/02/13 05:08:55;;;;;;;10.20;6.53;;;5.20;99.90;4.90;100399.00;;;;4930298;28;90233;-73
2024/02/13 05:11:23;;;;;;;9.43;5.30;;;5.30;99.90;4.90;100416.00;;;;4934557;28;88180;-73
2024/02/13 05:13:49;;;;;;;12.43;6.00;;;5.60;99.90;4.80;100408.00;;;;4932644;28;87935;-73
2024/02/13 05:16:17;;;;;;;8.37;5.30;;;5.80;99.90;4.80;100413.00;;;;4927815;28;88756;-73
2024/02/13 05:18:44;;;;;;;4.80;3.40;;;4.90;99.90;4.80;100413.00;;;;4932903;28;88202;-73
2024/02/13 05:21:10;;;;;;;8.20;4.83;;;5.00;99.90;4.70;100418.00;;;;4929181;28;88839;-72
2024/02/13 05:23:38;;;;;;;10.43;4.87;;;4.90;99.90;4.70;100428.00;;;;4934316;28;88462;-71
2024/02/13 05:26:07;;;;;;;8.57;5.87;;;5.00;99.90;4.70;100432.00;;;;4931431;28;87009;-71
2024/02/13 05:28:37;;;;;;;6.77;4.67;;;4.90;99.90;4.60;100434.00;;;;4930051;28;92623;-69
2024/02/13 05:31:05;;;;;;;7.47;5.80;;;4.90;99.90;4.60;100442.00;;;;4925610;28;89339;-72
2024/02/13 05:33:39;;;;;;;5.83;4.70;;;4.80;99.90;4.60;100435.00;;;;4928724;28;89504;-69
2024/02/13 05:36:05;;;;;;;8.67;5.40;;;5.80;99.90;4.60;100435.00;;;;4924174;28;87767;-70
2024/02/13 05:38:43;;;;;;;7.33;4.03;;;4.80;99.90;4.60;100447.00;;;;4934816;28;87835;-72
2024/02/13 05:41:09;;;;;;;10.70;6.30;;;4.80;99.90;4.50;100458.00;;;;4942313;28;88062;-72
2024/02/13 05:43:35;;;;;;;5.40;4.73;;;4.70;99.90;4.50;100461.00;;;;4930419;28;108174;-70
2024/02/13 05:46:00;;;;;;;10.60;5.07;;;4.60;99.90;4.50;100453.00;;;;4930714;28;104830;-70
2024/02/13 05:48:26;;;;;;;7.80;5.50;;;4.60;99.90;4.50;100471.00;;;;4930216;28;107922;-70
2024/02/13 05:50:52;;;;;;;6.17;4.77;;;4.60;99.90;4.50;100459.00;;;;4928031;28;116726;-70
2024/02/13 05:53:18;;;;;;;8.10;5.30;;;4.80;99.90;4.60;100471.00;;;;4930339;28;87902;-69
2024/02/13 05:55:44;;;;;;;7.50;5.40;;;4.70;99.90;4.60;100476.00;;;;4931027;28;94727;-70
2024/02/13 05:58:09;;;;;;;9.00;4.80;;;4.80;99.90;4.70;100475.00;;;;4928416;28;88641;-71
2024/02/13 06:00:35;;;;;;;8.03;4.63;;;4.80;99.90;4.70;100479.00;;;;4930329;28;117055;-69
2024/02/13 06:03:01;;;;;;;8.10;4.67;;;4.90;99.90;4.70;100484.00;;;;4928768;28;118537;-69
2024/02/13 06:05:27;;;;;;;8.47;5.23;;;4.90;99.90;4.80;100485.00;;;;4928505;28;88213;-69
2024/02/13 06:07:53;;;;;;;7.63;5.27;;;4.90;99.90;4.80;100487.00;;;;4927132;28;88058;-69
2024/02/13 06:10:22;;;;;;;5.87;4.37;;;5.80;99.90;4.80;100502.00;;;;4927430;28;117900;-69
2024/02/13 06:12:47;;;;;;;7.90;4.83;;;5.40;99.90;4.80;100501.00;;;;4927084;28;118240;-69
2024/02/13 06:15:13;;;;;;;5.70;4.70;;;5.00;99.90;4.80;100505.00;;;;4928323;28;109025;-69
2024/02/13 06:17:40;;;;;;;7.93;5.27;;;5.00;99.90;4.90;100509.00;;;;4928433;28;109313;-70
2024/02/13 06:20:08;;;;;;;9.43;5.70;;;5.90;99.90;4.90;100508.00;;;;4927270;28;117549;-69
2024/02/13 06:22:35;;;;;;;6.33;5.00;;;5.10;99.90;4.90;100510.00;;;;4928107;28;89591;-69
2024/02/13 06:25:04;;;;;;;8.10;4.57;;;4.60;99.90;4.90;100522.00;;;;4931340;28;87963;-71
2024/02/13 06:27:34;;;;;;;8.63;4.53;;;5.10;99.90;4.90;100525.00;;;;4940267;28;87882;-69
2024/02/13 06:30:01;;;;;;;12.80;3.90;;;5.20;99.90;5.00;100529.00;;;;4928285;28;106133;-69
2024/02/13 06:32:27;;;;;;;5.60;4.50;;;5.10;99.90;5.00;100525.00;;;;4929134;28;88763;-69
2024/02/13 06:34:53;;;;;;;3.83;3.47;;;5.50;99.90;5.00;100541.00;;;;4914757;28;87862;-71
2024/02/13 06:37:23;;;;;;;9.93;4.77;;;6.00;99.90;5.00;100540.00;;;;4927787;28;87940;-69
2024/02/13 06:39:49;;;;;;;21.67;5.30;;;5.20;99.90;5.00;100537.00;;;;4930526;28;88174;-69
2024/02/13 06:42:18;;;;;;;6.27;4.47;;;5.20;99.90;5.00;100544.00;;;;4930766;28;87807;-69
2024/02/13 06:44:47;;;;;;;5.70;3.57;;;5.20;99.90;5.00;100553.00;;;;4931489;28;87832;-70
2024/02/13 06:47:12;;;;;;;7.20;5.23;;;5.20;99.90;5.00;100543.00;;;;4913818;28;88695;-71
2024/02/13 06:49:38;;;;;;;7.33;4.23;;;5.10;99.90;5.00;100546.00;;;;4932100;28;88887;-69
2024/02/13 06:52:06;;;;;;;8.67;5.27;;;5.90;99.90;5.00;100549.00;;;;4927029;28;88600;-69
2024/02/13 06:54:32;;;;;;;6.67;4.23;;;5.30;99.90;5.00;100553.00;;;;4926505;28;87926;-69
2024/02/13 06:57:00;;;;;;;3.97;3.50;;;5.10;99.90;5.10;100564.00;;;;4931822;28;96669;-69
2024/02/13 06:59:29;;;;;;;5.10;4.27;;;5.20;99.90;5.10;100565.00;;;;4929855;28;89425;-69
2024/02/13 07:01:55;;;;;;;6.87;4.57;;;5.70;99.90;5.10;100571.00;;;;4931532;28;88119;-69
2024/02/13 07:04:21;;;;;;;6.33;4.37;;;5.20;99.90;5.10;100567.00;;;;4929380;28;99079;-71
2024/02/13 07:06:46;;;;;;;10.50;5.70;;;5.30;99.90;5.10;100576.00;;;;4931119;28;98883;-74
2024/02/13 07:09:13;;;;;;;7.23;4.27;;;5.30;99.90;5.10;100583.00;;;;4936468;28;88237;-71
2024/02/13 07:11:39;;;;;;;6.70;4.57;;;5.30;99.90;5.10;100577.00;;;;4929545;28;89067;-70
2024/02/13 07:14:05;;;;;;;6.50;3.83;;;5.20;99.90;5.10;100586.00;;;;4930233;28;109757;-69
2024/02/13 07:16:31;;;;;;;6.03;4.03;;;6.00;99.90;5.10;100590.00;;;;4931249;28;87947;-69
2024/02/13 07:18:57;;;;;;;6.30;3.33;;;5.20;99.90;5.00;100577.00;;;;4933692;28;118297;-69
2024/02/13 07:21:24;;;;;;;5.63;3.90;;;5.60;99.90;5.00;100588.00;;;;4933497;28;117763;-71
2024/02/13 07:23:54;;;;;;;6.17;3.13;;;5.20;99.90;5.00;100582.00;;;;4931494;28;87781;-71
2024/02/13 07:26:21;;;;;;;5.90;3.93;;;6.10;99.90;5.00;100597.00;;;;4935066;28;89787;-72
2024/02/13 07:28:47;;;;;;;4.57;4.13;;;6.10;99.90;5.10;100593.00;;;;4929428;28;88496;-71
2024/02/13 07:31:16;;;;;;;3.40;2.93;;;6.30;99.90;5.10;100601.00;;;;4932757;28;87662;-71
2024/02/13 07:33:41;;;;;;;7.93;4.27;;;5.40;99.90;5.20;100604.00;;;;4932870;28;88323;-71
2024/02/13 07:36:07;;;;;;;7.20;3.83;;;5.20;99.90;5.20;100611.00;;;;4926337;28;103334;-71
2024/02/13 07:38:33;;;;;;;6.17;4.03;;;5.30;99.90;5.30;100601.00;;;;4930728;28;118019;-73
2024/02/13 07:41:01;;;;;;;4.73;3.23;;;5.50;99.90;5.30;100616.00;;;;4929799;28;87858;-71
2024/02/13 07:43:27;;;;;;;5.27;3.30;;;5.40;99.90;5.40;100620.00;;;;4932519;28;87952;-72
2024/02/13 07:45:52;;;;;;;5.80;4.47;;;5.50;99.90;5.40;100627.00;;;;4928293;28;107966;-72
2024/02/13 07:48:18;;;;;;;5.67;4.57;;;5.70;99.90;5.40;100631.00;;;;4931618;28;117155;-70
2024/02/13 07:50:44;;;;;;;6.20;4.27;;;6.50;99.90;5.50;100628.00;;;;4931584;28;87889;-71
2024/02/13 07:53:10;;;;;;;4.80;3.63;;;5.90;99.90;5.50;100624.00;;;;4915424;28;91746;-74
2024/02/13 07:55:36;;;;;;;4.60;3.27;;;5.90;99.90;5.60;100633.00;;;;4936898;28;87915;-70
2024/02/13 07:58:03;;;;;;;4.27;3.77;;;5.70;99.90;5.60;100637.00;;;;4931742;28;105427;-72
2024/02/13 08:00:29;;;;;;;6.60;3.97;;;5.70;99.90;5.70;100632.00;;;;4932386;28;88564;-73
2024/02/13 08:02:55;;;;;;;5.37;3.67;;;5.80;99.90;5.70;100626.00;;;;4937705;28;87904;-72
2024/02/13 08:05:21;;;;;;;2.93;2.60;;;5.80;99.90;5.70;100633.00;;;;4931441;28;101075;-73
2024/02/13 08:07:48;;;;;;;6.47;3.00;;;6.40;99.90;5.70;100632.00;;;;4933115;28;88006;-73
2024/02/13 08:10:13;;;;;;;4.73;3.10;;;6.20;99.90;5.80;100634.00;;;;4928395;28;87961;-71
2024/02/13 08:12:39;;;;;;;7.00;4.03;;;6.00;99.90;5.80;100631.00;;;;4931319;28;109127;-72
2024/02/13 08:15:07;;;;;;;13.90;3.37;;;6.20;99.90;5.80;100632.00;;;;4933891;28;107176;-73
2024/02/13 08:17:33;;;;;;;4.43;3.23;;;6.10;99.90;5.90;100643.00;;;;4932061;28;88611;-73
2024/02/13 08:20:00;;;;;;;6.73;3.73;;;6.00;99.90;5.90;100642.00;;;;4932148;28;116848;-74
2024/02/13 08:22:26;;;;;;;4.73;3.10;;;6.00;99.90;5.90;100644.00;;;;4940088;28;87951;-73
2024/02/13 08:24:52;;;;;;;7.77;3.40;;;6.00;99.90;6.00;100642.00;;;;4936227;28;89098;-72
2024/02/13 08:27:18;;;;;;;4.90;3.27;;;6.10;99.90;6.10;100642.00;;;;4930068;28;116837;-75
2024/02/13 08:29:44;;;;;;;3.70;2.57;;;6.10;99.90;6.10;100643.00;;;;4930013;28;116961;-74
2024/02/13 08:32:10;;;;;;;5.53;3.53;;;6.60;99.90;6.20;100641.00;;;;4924976;28;88023;-74
2024/02/13 08:34:36;;;;;;;3.07;2.50;;;6.50;99.90;6.30;100648.00;;;;4915911;28;110004;-72
2024/02/13 08:37:01;;;;;;;3.70;2.40;;;6.40;99.90;6.30;100650.00;;;;4929570;28;117827;-72
2024/02/13 08:39:28;;;;;;;5.80;2.60;;;7.00;99.90;6.40;100655.00;;;;4930070;28;107013;-74
2024/02/13 08:41:54;;;;;;;2.83;2.57;;;6.50;99.90;6.40;100651.00;;;;4935703;28;87326;-72
2024/02/13 08:44:21;;;;;;;3.03;2.30;;;6.60;99.90;6.50;100656.00;;;;4928789;28;89214;-72
2024/02/13 08:46:47;;;;;;;3.50;2.70;;;6.60;99.90;6.70;100657.00;;;;4931318;28;89088;-72
2024/02/13 08:49:13;;;;;;;5.67;3.13;;;6.80;99.90;7.00;100659.00;;;;4929940;28;89591;-73
2024/02/13 08:51:38;;;;;;;6.27;3.50;;;7.10;99.90;7.20;100655.00;;;;4930373;28;87818;-73
2024/02/13 08:54:04;;;;;;;3.63;3.00;;;7.60;99.90;7.30;100674.00;;;;4929832;28;109179;-72
2024/02/13 08:56:30;;;;;;;6.63;4.40;;;7.30;99.90;7.30;100658.00;;;;4931718;28;88004;-74
2024/02/13 08:58:56;;;;;;;2.93;2.10;;;7.50;99.90;7.30;100658.00;;;;4932918;28;88108;-75
2024/02/13 09:01:22;;;;;;;2.23;1.87;;;7.60;99.90;7.40;100664.00;;;;4931218;28;87880;-74
2024/02/13 09:03:48;;;;;;;3.87;2.40;;;7.60;99.90;7.50;100670.00;;;;4934227;28;108008;-73
2024/02/13 09:06:16;;;;;;;3.03;2.70;;;7.60;99.90;7.60;100666.00;;;;4928272;28;87715;-71
2024/02/13 09:08:43;;;;;;;5.73;3.00;;;7.70;99.90;7.60;100665.00;;;;4931914;28;87833;-71
2024/02/13 09:11:12;;;;;;;8.33;2.67;;;7.60;99.90;7.70;100668.00;;;;4930058;28;88322;-72
2024/02/13 09:13:39;;;;;;;8.20;1.83;;;7.80;99.90;7.60;100671.00;;;;4929229;28;88980;-71
2024/02/13 09:16:07;;;;;;;3.40;1.93;;;7.80;99.90;7.50;100683.00;;;;4931358;28;88372;-71
2024/02/13 09:18:33;;;;;;;2.57;2.30;;;7.80;99.90;7.60;100699.00;;;;4928974;28;88030;-71
2024/02/13 09:20:59;;;;;;;10.77;2.90;;;7.70;99.90;7.50;100692.00;;;;4928898;28;87970;-72
2024/02/13 09:23:27;;;;;;;2.57;2.30;;;7.70;99.90;7.70;100699.00;;;;4929784;28;88170;-71
2024/02/13 09:25:55;;;;;;;2.83;1.63;;;7.80;99.90;8.00;100700.00;;;;4927028;28;87967;-72
2024/02/13 09:28:24;;;;;;;4.13;1.97;;;8.00;99.90;8.30;100711.00;;;;4923957;28;88346;-71
2024/02/13 09:30:50;;;;;;;4.73;2.47;;;8.40;99.90;8.70;100715.00;;;;4930483;28;87108;-71
2024/02/13 09:33:20;;;;;;;3.23;2.40;;;8.70;99.90;9.20;100711.00;;;;4928580;28;88033;-71
2024/02/13 09:35:46;;;;;;;5.67;2.73;;;9.00;99.90;9.50;100714.00;;;;4930441;28;87859;-72
2024/02/13 09:38:11;;;;;;;3.23;2.30;;;9.50;99.90;9.80;100716.00;;;;4933562;28;106432;-73
2024/02/13 09:40:39;;;;;;;2.60;2.10;;;9.70;99.90;10.00;100713.00;;;;4931208;28;88011;-75
2024/02/13 09:43:07;;;;;;;4.23;2.40;;;10.00;99.90;10.20;100712.00;;;;4915535;28;96467;-72
2024/02/13 09:45:34;;;;;;;2.33;1.87;;;10.20;99.90;10.30;100718.00;;;;4930699;28;88688;-73
2024/02/13 09:48:13;;;;;;;3.93;2.23;;;10.40;99.90;10.40;100718.00;;;;4926774;28;88396;-74
2024/02/13 09:50:43;;;;;;;1.40;1.30;;;10.50;99.90;10.20;100712.00;;;;4926000;28;87969;-73
2024/02/13 09:53:34;;;;;;;2.10;1.67;;;10.40;99.90;10.00;100721.00;;;;4929157;28;97349;-73
2024/02/13 09:56:00;;;;;;;1.90;1.50;;;10.30;99.90;10.00;100718.00;;;;4930549;28;87653;-73
2024/02/13 09:58:26;;;;;;;3.27;1.67;;;10.20;99.90;10.10;100724.00;;;;4930773;28;96712;-73
2024/02/13 10:00:53;;;;;;;3.03;1.43;;;10.20;99.90;10.30;100728.00;;;;4926957;28;87977;-75
2024/02/13 10:03:19;;;;;;;2.47;1.37;;;10.40;99.90;10.60;100725.00;;;;4928284;28;88788;-73
2024/02/13 10:05:45;;;;;;;3.80;2.07;;;10.70;99.90;10.80;100733.00;;;;4932746;28;108105;-75
2024/02/13 10:08:11;;;;;;;3.17;1.53;;;10.80;99.90;11.00;100727.00;;;;4928759;28;88744;-74
2024/02/13 10:10:38;;;;;;;4.03;1.47;;;11.00;99.90;11.20;100726.00;;;;4933135;28;89432;-73
2024/02/13 10:13:05;;;;;;;2.43;1.40;;;11.20;99.90;11.50;100737.00;;;;4946834;28;87848;-73
2024/02/13 10:15:39;;;;;;;2.13;1.30;;;11.50;99.90;11.60;100738.00;;;;4931836;28;88416;-73
2024/02/13 10:18:08;;;;;;;2.03;1.27;;;11.70;99.90;11.60;100742.00;;;;4929247;28;88386;-74
2024/02/13 10:20:34;;;;;;;2.60;1.40;;;11.70;99.90;11.60;100731.00;;;;4935342;28;87266;-73
2024/02/13 10:23:00;;;;;;;4.30;1.77;;;11.70;99.90;11.60;100735.00;;;;4932027;28;88009;-74
2024/02/13 10:25:31;;;;;;;7.83;2.43;;;11.70;99.90;11.40;100728.00;;;;4930713;28;88163;-72
2024/02/13 10:28:01;;;;;;;2.20;1.63;;;11.60;99.90;11.10;100733.00;;;;4925010;28;89024;-75
2024/02/13 10:30:30;;;;;;;2.13;1.80;;;11.30;99.90;10.80;100736.00;;;;4931916;28;102214;-74
2024/02/13 10:33:06;;;;;;;1.97;1.60;;;11.10;99.90;10.50;100738.00;;;;4931205;28;108553;-73
2024/02/13 10:35:32;;;;;;;3.47;1.60;;;10.80;99.90;10.20;100741.00;;;;4931322;28;88689;-73
2024/02/13 10:37:59;;;;;;;2.03;1.57;;;10.50;99.90;10.00;100748.00;;;;4930457;28;88073;-71
2024/02/13 10:40:27;;;;;;;2.57;1.73;;;10.20;99.90;9.90;100754.00;;;;4930266;28;88302;-72
2024/02/13 10:43:03;;;;;;;4.13;1.70;;;10.10;99.90;10.20;100745.00;;;;4948376;28;87924;-72
2024/02/13 10:45:30;;;;;;;2.00;1.80;;;10.20;99.90;10.50;100742.00;;;;4933974;28;88678;-73
2024/02/13 10:48:12;;;;;;;3.03;1.67;;;10.40;99.90;11.00;100741.00;;;;4932949;28;88673;-72
2024/02/13 10:50:40;;;;;;;5.50;1.80;;;10.80;99.90;11.40;100756.00;;;;4940743;28;87996;-71
2024/02/13 10:53:06;;;;;;;4.10;1.57;;;11.20;99.90;11.80;100744.00;;;;4949639;28;90217;-71
2024/02/13 10:55:36;;;;;;;1.67;1.20;;;11.60;99.90;12.10;100742.00;;;;4946744;28;90409;-72